Time;durP1;ratioP1;P1;durP2;ratioP2;P2;SDS_P1;SDS_P2;PMS_P1;PMS_P2;Temp;Humidity;BMP_temperature;BMP_pressure;BME280_temperature;BME280_humidity;BME280_pressure;Samples;Min_cycle;Max_cycle;Signal;HPM_P1;HPM_P2
2021/07/27 00:00:36;;;;;;;11.63;8.27;;;26.70;62.10;;;;;;6170702;28;83453;-65
2021/07/27 00:03:37;;;;;;;11.38;8.90;;;26.70;62.00;;;;;;6179843;28;81349;-66
2021/07/27 00:06:37;;;;;;;12.98;8.88;;;26.70;62.00;;;;;;6176474;28;80975;-65
2021/07/27 00:09:38;;;;;;;13.63;9.05;;;26.70;62.20;;;;;;6179785;28;80472;-67
2021/07/27 00:12:38;;;;;;;14.60;8.68;;;26.70;62.20;;;;;;6181455;28;80576;-66
2021/07/27 00:15:39;;;;;;;11.13;7.75;;;26.70;61.90;;;;;;6173859;28;81037;-65
2021/07/27 00:18:40;;;;;;;12.75;8.45;;;26.70;62.00;;;;;;6180840;28;81188;-65
2021/07/27 00:21:40;;;;;;;15.82;9.35;;;26.70;62.00;;;;;;6174813;28;80509;-66
2021/07/27 00:24:40;;;;;;;17.42;10.00;;;26.70;62.10;;;;;;6178695;28;82250;-65
2021/07/27 00:27:41;;;;;;;14.35;8.82;;;26.70;62.20;;;;;;6176846;28;82831;-65
2021/07/27 00:30:42;;;;;;;13.60;9.18;;;26.70;62.40;;;;;;6179370;28;85385;-64
2021/07/27 00:33:42;;;;;;;15.68;9.55;;;26.70;62.30;;;;;;6176972;28;82686;-64
2021/07/27 00:36:43;;;;;;;17.85;10.68;;;26.70;62.40;;;;;;6167927;28;83276;-65
2021/07/27 00:39:43;;;;;;;16.45;10.43;;;26.70;62.70;;;;;;6176226;28;83138;-64
2021/07/27 00:42:44;;;;;;;14.27;10.30;;;26.70;62.90;;;;;;6181417;28;83081;-65
2021/07/27 00:45:44;;;;;;;17.13;9.98;;;26.70;63.20;;;;;;6177153;28;83063;-66
2021/07/27 00:48:45;;;;;;;16.83;9.93;;;26.70;63.00;;;;;;6178453;28;83234;-66
2021/07/27 00:51:45;;;;;;;13.63;9.38;;;26.70;63.10;;;;;;6177986;28;84241;-65
2021/07/27 00:54:46;;;;;;;11.90;9.63;;;26.70;63.40;;;;;;6174640;28;80714;-66
2021/07/27 00:57:46;;;;;;;14.35;9.57;;;26.70;63.60;;;;;;6172729;28;80310;-66
2021/07/27 01:00:47;;;;;;;13.38;8.90;;;26.70;63.30;;;;;;6174431;28;80597;-67
2021/07/27 01:03:47;;;;;;;17.52;9.52;;;26.70;63.30;;;;;;6176802;28;81561;-67
2021/07/27 01:06:48;;;;;;;13.45;9.52;;;26.70;63.60;;;;;;6182353;28;80520;-66
2021/07/27 01:09:48;;;;;;;14.93;9.10;;;26.70;63.40;;;;;;6175657;28;82911;-64
2021/07/27 01:12:48;;;;;;;13.15;9.13;;;26.70;63.10;;;;;;6184729;28;80540;-64
2021/07/27 01:15:49;;;;;;;17.73;9.20;;;26.70;63.50;;;;;;6183541;28;81047;-63
2021/07/27 01:18:59;;;;;;;14.05;8.27;;;26.70;63.50;;;;;;6182959;28;81092;-64
2021/07/27 01:45:05;;;;;;;11.73;8.32;;;26.60;63.40;;;;;;6186897;28;80810;-65
2021/07/27 01:48:06;;;;;;;13.82;7.80;;;26.60;63.80;;;;;;6178811;28;81396;-66
2021/07/27 01:51:06;;;;;;;10.32;7.85;;;26.50;63.60;;;;;;6178468;28;80577;-65
2021/07/27 01:54:08;;;;;;;11.27;8.23;;;26.50;63.30;;;;;;6178121;28;80463;-66
2021/07/27 01:57:09;;;;;;;10.85;7.22;;;26.50;63.20;;;;;;6173342;28;80695;-66
2021/07/27 02:00:09;;;;;;;12.65;7.68;;;26.50;62.60;;;;;;6173040;28;80401;-66
2021/07/27 02:03:10;;;;;;;11.55;7.60;;;26.50;62.70;;;;;;6184919;28;81338;-67
2021/07/27 02:06:10;;;;;;;10.27;7.97;;;26.50;62.70;;;;;;6181867;28;81479;-67
2021/07/27 02:09:11;;;;;;;11.75;7.68;;;26.50;62.90;;;;;;6183974;28;80308;-67
2021/07/27 02:12:24;;;;;;;10.23;8.13;;;26.50;62.60;;;;;;6170396;28;81759;-66
2021/07/27 02:15:24;;;;;;;11.13;7.53;;;26.50;63.00;;;;;;6172496;28;87136;-65
2021/07/27 02:18:25;;;;;;;10.57;7.50;;;26.50;63.00;;;;;;6192805;28;81796;-66
2021/07/27 02:21:26;;;;;;;12.07;7.03;;;26.40;62.80;;;;;;6175158;28;81063;-65
2021/07/27 02:24:26;;;;;;;9.23;6.80;;;26.40;62.80;;;;;;6170544;28;80840;-65
2021/07/27 02:27:26;;;;;;;11.27;7.45;;;26.40;62.80;;;;;;6179554;28;80402;-68
2021/07/27 02:30:27;;;;;;;10.50;7.55;;;26.40;62.90;;;;;;6182503;28;80404;-66
2021/07/27 02:33:29;;;;;;;10.13;7.63;;;26.40;62.80;;;;;;6172293;28;80291;-65
2021/07/27 02:36:30;;;;;;;9.90;7.35;;;26.40;62.60;;;;;;6179688;28;80356;-67
2021/07/27 02:39:30;;;;;;;8.80;6.97;;;26.40;62.80;;;;;;6187465;28;80816;-67
2021/07/27 02:42:31;;;;;;;10.20;7.22;;;26.40;62.80;;;;;;6171865;28;80659;-66
2021/07/27 02:45:31;;;;;;;9.90;7.38;;;26.40;62.80;;;;;;6175959;28;81388;-67
2021/07/27 02:48:32;;;;;;;13.48;7.45;;;26.50;62.30;;;;;;6177342;28;80565;-67
2021/07/27 02:51:32;;;;;;;12.82;7.22;;;26.50;62.30;;;;;;6179881;28;80624;-66
2021/07/27 02:54:33;;;;;;;12.60;7.35;;;26.50;62.40;;;;;;6183220;28;80476;-66
2021/07/27 02:57:33;;;;;;;12.07;7.50;;;26.50;62.40;;;;;;6180560;28;80122;-65
2021/07/27 03:00:34;;;;;;;10.90;7.78;;;26.40;62.70;;;;;;6181786;28;80661;-65
2021/07/27 03:03:34;;;;;;;13.65;7.78;;;26.40;62.30;;;;;;6175847;28;81323;-66
2021/07/27 03:06:34;;;;;;;11.15;7.88;;;26.40;62.40;;;;;;6179547;28;81227;-66
2021/07/27 03:09:55;;;;;;;13.48;7.50;;;26.40;62.60;;;;;;6171292;28;80545;-66
2021/07/27 03:12:55;;;;;;;8.75;7.03;;;26.40;62.50;;;;;;6197774;28;82510;-65
2021/07/27 03:15:56;;;;;;;12.55;7.18;;;26.40;62.60;;;;;;6181944;28;80346;-65
2021/07/27 03:18:56;;;;;;;12.15;7.03;;;26.50;63.00;;;;;;6181908;28;80276;-66
2021/07/27 03:21:57;;;;;;;11.65;7.40;;;26.50;62.80;;;;;;6183293;28;81287;-66
2021/07/27 03:24:58;;;;;;;8.35;7.10;;;26.50;62.70;;;;;;6172282;28;81429;-65
2021/07/27 03:27:58;;;;;;;12.07;7.30;;;26.50;62.90;;;;;;6175505;28;81924;-66
2021/07/27 03:30:59;;;;;;;18.77;8.50;;;26.40;63.10;;;;;;6183174;28;81634;-66
2021/07/27 03:34:00;;;;;;;12.00;8.00;;;26.40;63.40;;;;;;6179046;28;81151;-66
2021/07/27 03:37:01;;;;;;;11.30;7.55;;;26.40;63.50;;;;;;6181346;28;84282;-66
2021/07/27 03:40:02;;;;;;;13.50;8.52;;;26.40;63.30;;;;;;6178924;28;81028;-66
2021/07/27 03:43:02;;;;;;;11.43;8.57;;;26.40;63.40;;;;;;6182431;28;80136;-67
2021/07/27 03:46:03;;;;;;;13.52;8.07;;;26.30;63.40;;;;;;6181533;28;80873;-67
2021/07/27 03:49:03;;;;;;;14.75;8.30;;;26.30;63.50;;;;;;6170164;28;80445;-67
2021/07/27 03:52:04;;;;;;;15.10;8.52;;;26.30;63.40;;;;;;6171088;28;80803;-65
2021/07/27 03:55:04;;;;;;;16.67;9.45;;;26.30;63.40;;;;;;6170133;28;81725;-66
2021/07/27 03:58:05;;;;;;;14.80;9.15;;;26.30;63.30;;;;;;6174506;28;81474;-67
2021/07/27 04:01:05;;;;;;;14.02;9.00;;;26.20;63.30;;;;;;6174661;28;80763;-66
2021/07/27 04:04:06;;;;;;;17.55;9.57;;;26.20;63.30;;;;;;6176774;28;82041;-67
2021/07/27 04:07:06;;;;;;;14.50;9.00;;;26.20;63.10;;;;;;6169568;28;80546;-68
2021/07/27 04:10:07;;;;;;;14.80;8.73;;;26.00;63.20;;;;;;6166651;28;80440;-67
2021/07/27 04:13:07;;;;;;;10.55;8.48;;;25.90;63.50;;;;;;6179183;28;80271;-69
2021/07/27 04:16:08;;;;;;;14.57;7.85;;;25.80;63.30;;;;;;6176675;28;80458;-69
2021/07/27 04:19:08;;;;;;;14.88;8.00;;;25.90;62.90;;;;;;6172041;28;80463;-67
2021/07/27 04:22:09;;;;;;;10.88;7.38;;;25.90;62.50;;;;;;6180591;28;80668;-65
2021/07/27 04:25:09;;;;;;;13.70;7.07;;;25.90;62.40;;;;;;6167230;28;80558;-66
2021/07/27 04:28:10;;;;;;;14.35;8.18;;;25.90;61.90;;;;;;6184344;28;80912;-67
2021/07/27 04:31:10;;;;;;;11.52;7.10;;;25.90;61.80;;;;;;6167614;28;80347;-67
2021/07/27 04:34:11;;;;;;;11.40;7.35;;;26.00;61.60;;;;;;6183221;28;80503;-66
2021/07/27 04:37:11;;;;;;;10.80;6.90;;;26.00;61.40;;;;;;6182407;28;80896;-67
2021/07/27 04:40:12;;;;;;;11.02;7.43;;;26.00;61.50;;;;;;6181585;28;80903;-67
2021/07/27 04:43:12;;;;;;;17.25;8.15;;;26.00;61.30;;;;;;6179146;28;80510;-66
2021/07/27 04:46:13;;;;;;;12.38;7.65;;;26.00;61.40;;;;;;6174808;28;80229;-68
2021/07/27 04:49:13;;;;;;;14.43;8.23;;;26.10;61.50;;;;;;6170563;28;80627;-68
2021/07/27 04:52:20;;;;;;;12.82;7.15;;;26.10;61.20;;;;;;6176462;28;80509;-65
2021/07/27 04:55:21;;;;;;;12.38;7.63;;;26.10;61.30;;;;;;6176334;28;83074;-66
2021/07/27 04:58:21;;;;;;;12.65;7.50;;;26.20;61.20;;;;;;6180557;28;81505;-66
2021/07/27 05:01:21;;;;;;;10.23;7.60;;;26.20;61.20;;;;;;6177916;28;80768;-68
2021/07/27 05:04:22;;;;;;;14.95;8.20;;;26.20;60.90;;;;;;6171972;28;81086;-69
2021/07/27 05:07:23;;;;;;;19.75;9.45;;;26.30;61.10;;;;;;6169829;28;80518;-66
2021/07/27 05:10:23;;;;;;;11.65;8.88;;;26.40;61.30;;;;;;6179702;28;81707;-66
2021/07/27 05:13:23;;;;;;;15.80;8.80;;;26.40;61.20;;;;;;6170801;28;80748;-67
2021/07/27 05:16:24;;;;;;;16.00;10.30;;;26.40;61.20;;;;;;6179412;28;81292;-68
2021/07/27 05:19:24;;;;;;;16.10;9.90;;;26.40;61.20;;;;;;6182269;28;90161;-66
2021/07/27 05:22:25;;;;;;;22.17;10.18;;;26.40;61.40;;;;;;6179522;28;83513;-66
2021/07/27 05:25:25;;;;;;;16.92;9.73;;;26.50;61.50;;;;;;6177276;28;83187;-66
2021/07/27 05:28:26;;;;;;;16.85;9.18;;;26.50;61.70;;;;;;6182732;28;83840;-67
2021/07/27 05:31:26;;;;;;;14.30;8.32;;;26.50;61.90;;;;;;6180928;28;80763;-68
2021/07/27 05:34:27;;;;;;;13.57;9.48;;;26.60;61.90;;;;;;6179541;28;82223;-68
2021/07/27 05:37:27;;;;;;;15.68;9.02;;;26.60;61.50;;;;;;6172390;28;80862;-67
2021/07/27 05:40:31;;;;;;;14.32;8.02;;;26.50;61.50;;;;;;6180904;28;80849;-67
2021/07/27 05:43:31;;;;;;;14.18;7.72;;;26.50;61.00;;;;;;6181412;28;81094;-68
2021/07/27 05:46:32;;;;;;;15.48;9.40;;;26.50;60.60;;;;;;6170520;28;80581;-70
2021/07/27 05:49:35;;;;;;;9.82;7.63;;;26.40;60.40;;;;;;6169530;28;80820;-69
2021/07/27 05:52:35;;;;;;;13.80;7.75;;;26.40;60.40;;;;;;6185332;28;80613;-66
2021/07/27 05:55:36;;;;;;;13.18;7.38;;;26.20;59.90;;;;;;6175455;28;80748;-66
2021/07/27 05:58:36;;;;;;;9.77;6.18;;;26.40;59.50;;;;;;6179065;28;81527;-66
2021/07/27 06:01:36;;;;;;;16.15;7.53;;;26.40;60.10;;;;;;6180955;28;80833;-67
2021/07/27 06:04:37;;;;;;;15.95;7.82;;;26.40;60.00;;;;;;6183447;28;81061;-66
2021/07/27 06:07:37;;;;;;;11.30;7.63;;;26.50;60.40;;;;;;6174122;28;80327;-67
2021/07/27 06:10:38;;;;;;;22.38;9.95;;;26.50;60.60;;;;;;6183548;28;80979;-68
2021/07/27 06:13:38;;;;;;;49.20;18.58;;;26.50;61.10;;;;;;6182258;28;81200;-66
2021/07/27 06:16:39;;;;;;;50.45;22.25;;;26.60;62.50;;;;;;6176680;28;83280;-65
2021/07/27 06:19:40;;;;;;;52.63;20.33;;;26.60;65.30;;;;;;6182044;28;83662;-67
2021/07/27 06:22:40;;;;;;;26.35;13.52;;;26.70;65.50;;;;;;6177720;28;83895;-70
2021/07/27 06:25:41;;;;;;;23.15;10.63;;;26.70;63.90;;;;;;6175647;28;83168;-70
2021/07/27 06:28:41;;;;;;;21.52;9.70;;;26.70;62.10;;;;;;6180208;28;83561;-67
2021/07/27 06:31:42;;;;;;;131.43;45.88;;;26.70;61.90;;;;;;6183543;28;83901;-70
2021/07/27 06:34:42;;;;;;;291.08;101.40;;;26.70;61.90;;;;;;6171508;28;85681;-68
2021/07/27 06:37:42;;;;;;;219.00;76.10;;;26.70;61.60;;;;;;6173806;28;85451;-67
2021/07/27 06:40:43;;;;;;;221.68;77.25;;;26.70;61.20;;;;;;6169441;28;86405;-66
2021/07/27 06:43:43;;;;;;;149.00;53.58;;;26.80;61.10;;;;;;6168745;28;83949;-67
2021/07/27 06:46:44;;;;;;;79.68;29.75;;;26.80;60.80;;;;;;6180204;28;83297;-68
2021/07/27 06:49:44;;;;;;;55.38;21.15;;;26.80;60.80;;;;;;6176410;28;84049;-68
2021/07/27 06:52:45;;;;;;;29.80;13.10;;;26.80;61.70;;;;;;6170493;28;87453;-68
2021/07/27 06:55:45;;;;;;;27.63;11.45;;;26.80;62.40;;;;;;6175212;28;84217;-68
2021/07/27 06:58:46;;;;;;;22.05;10.05;;;26.80;62.90;;;;;;6177484;28;82961;-65
2021/07/27 07:01:46;;;;;;;18.77;8.80;;;26.80;63.20;;;;;;6166545;28;83337;-67
2021/07/27 07:04:47;;;;;;;18.15;9.43;;;26.80;63.60;;;;;;6181053;28;84023;-68
2021/07/27 07:07:47;;;;;;;13.32;9.10;;;26.80;64.40;;;;;;6191935;28;80537;-69
2021/07/27 07:10:48;;;;;;;17.75;9.15;;;26.80;63.70;;;;;;6166704;28;81855;-68
2021/07/27 07:13:48;;;;;;;15.63;8.57;;;26.80;63.50;;;;;;6178443;28;80723;-69
2021/07/27 07:16:49;;;;;;;14.75;8.88;;;26.70;63.80;;;;;;6178049;28;80589;-69
2021/07/27 07:19:49;;;;;;;14.00;8.35;;;26.70;64.00;;;;;;6179830;28;80739;-69
2021/07/27 07:22:50;;;;;;;18.10;9.52;;;26.70;63.40;;;;;;6179308;28;80981;-68
2021/07/27 07:25:51;;;;;;;11.65;8.32;;;26.70;63.40;;;;;;6184361;28;81508;-68
2021/07/27 07:28:52;;;;;;;14.88;8.82;;;26.70;63.70;;;;;;6178811;28;81465;-68
2021/07/27 07:31:52;;;;;;;11.75;8.70;;;26.70;64.20;;;;;;6179566;28;80455;-69
2021/07/27 07:34:52;;;;;;;14.85;9.30;;;26.70;64.70;;;;;;6183799;28;80863;-68
2021/07/27 07:37:53;;;;;;;13.68;8.82;;;26.70;64.80;;;;;;6180256;28;81416;-69
2021/07/27 07:40:53;;;;;;;14.18;8.70;;;26.70;64.50;;;;;;6174689;28;81469;-69
2021/07/27 07:43:54;;;;;;;16.88;8.30;;;26.70;63.60;;;;;;6172423;28;80730;-69
2021/07/27 07:46:54;;;;;;;12.13;8.43;;;26.70;63.80;;;;;;6174009;28;81375;-69
2021/07/27 07:49:58;;;;;;;19.25;8.98;;;26.70;63.50;;;;;;6175927;28;80564;-68
2021/07/27 07:52:58;;;;;;;14.30;9.13;;;26.70;63.10;;;;;;6176699;28;80363;-68
2021/07/27 07:55:59;;;;;;;15.77;9.05;;;26.70;63.10;;;;;;6175224;28;81495;-68
2021/07/27 07:58:59;;;;;;;14.05;7.97;;;26.70;62.80;;;;;;6177380;28;80589;-68
2021/07/27 08:01:59;;;;;;;14.23;8.82;;;26.70;62.80;;;;;;6172855;28;80595;-69
2021/07/27 08:05:00;;;;;;;15.55;8.80;;;26.70;63.00;;;;;;6175760;28;81130;-68
2021/07/27 08:08:00;;;;;;;14.05;8.80;;;26.70;63.10;;;;;;6178234;28;80506;-68
2021/07/27 08:11:01;;;;;;;11.77;8.68;;;26.70;63.10;;;;;;6188043;28;82202;-68
2021/07/27 08:14:02;;;;;;;18.02;9.45;;;26.70;63.10;;;;;;6175661;28;82099;-69
2021/07/27 08:17:02;;;;;;;16.05;7.97;;;26.70;63.10;;;;;;6176498;28;80726;-68
2021/07/27 08:20:03;;;;;;;14.38;8.88;;;26.70;63.10;;;;;;6177255;28;80551;-69
2021/07/27 08:23:04;;;;;;;13.45;8.32;;;26.70;63.00;;;;;;6178130;28;80896;-68
2021/07/27 08:26:05;;;;;;;13.13;8.38;;;26.80;62.90;;;;;;6174309;28;80379;-69
2021/07/27 08:29:05;;;;;;;14.18;8.57;;;26.80;62.90;;;;;;6175061;28;80317;-69
2021/07/27 08:32:06;;;;;;;17.20;8.82;;;26.80;62.90;;;;;;6174228;28;80538;-69
2021/07/27 08:35:07;;;;;;;15.45;8.07;;;26.80;62.90;;;;;;6178667;28;80532;-68
2021/07/27 08:38:07;;;;;;;14.60;8.65;;;26.70;63.00;;;;;;6177252;28;80802;-68
2021/07/27 08:41:08;;;;;;;11.93;7.97;;;26.70;62.50;;;;;;6173432;28;80482;-67
2021/07/27 08:44:08;;;;;;;15.45;9.40;;;26.70;62.70;;;;;;6167049;28;80711;-68
2021/07/27 08:47:09;;;;;;;18.00;9.30;;;26.70;63.00;;;;;;6171321;28;81483;-67
2021/07/27 08:50:09;;;;;;;15.75;10.93;;;26.70;62.80;;;;;;6172691;28;80383;-68
2021/07/27 08:53:10;;;;;;;15.05;9.70;;;26.80;62.80;;;;;;6171338;28;83264;-67
2021/07/27 08:56:10;;;;;;;16.27;8.90;;;26.80;63.30;;;;;;6175221;28;84388;-67
2021/07/27 08:59:11;;;;;;;17.77;10.82;;;26.80;62.90;;;;;;6175719;28;81489;-69
2021/07/27 09:02:11;;;;;;;19.92;10.40;;;26.80;62.60;;;;;;6170758;28;83264;-68
2021/07/27 09:05:12;;;;;;;16.48;10.35;;;26.70;63.00;;;;;;6174999;28;83402;-67
2021/07/27 09:08:13;;;;;;;16.48;11.02;;;26.80;62.90;;;;;;6171026;28;84755;-68
2021/07/27 09:11:14;;;;;;;17.25;10.70;;;26.70;62.50;;;;;;6169796;28;83298;-68
2021/07/27 09:14:15;;;;;;;18.98;11.27;;;26.80;63.20;;;;;;6169677;28;83234;-68
2021/07/27 09:17:15;;;;;;;16.77;10.63;;;26.70;62.80;;;;;;6170644;28;83582;-67
2021/07/27 09:20:16;;;;;;;18.83;10.32;;;26.80;62.70;;;;;;6173605;28;83689;-68
2021/07/27 09:23:16;;;;;;;17.92;10.38;;;26.90;62.80;;;;;;6174010;28;82856;-69
2021/07/27 09:26:21;;;;;;;17.23;10.98;;;26.90;63.00;;;;;;6174770;28;83494;-67
2021/07/27 09:29:23;;;;;;;15.73;10.27;;;26.90;62.70;;;;;;6169595;28;85991;-67
2021/07/27 09:32:25;;;;;;;19.60;11.27;;;26.90;62.70;;;;;;6173717;28;84058;-67
2021/07/27 09:35:27;;;;;;;20.13;12.13;;;26.90;62.90;;;;;;6181256;28;83480;-67
2021/07/27 09:38:34;;;;;;;19.38;10.80;;;26.90;63.80;;;;;;6176342;28;85829;-68
2021/07/27 09:41:34;;;;;;;19.90;11.20;;;26.90;64.00;;;;;;6178003;28;83511;-67
2021/07/27 09:44:35;;;;;;;18.50;12.25;;;26.80;63.90;;;;;;6192075;28;83094;-67
2021/07/27 09:47:35;;;;;;;17.73;11.80;;;26.90;64.30;;;;;;6173962;28;83383;-67
2021/07/27 09:50:36;;;;;;;18.13;12.27;;;26.90;64.20;;;;;;6171746;28;83025;-67
2021/07/27 09:53:36;;;;;;;19.38;11.68;;;26.90;63.90;;;;;;6176984;28;83732;-68
2021/07/27 09:56:36;;;;;;;21.38;13.48;;;26.90;64.10;;;;;;6175485;28;83589;-67
2021/07/27 09:59:37;;;;;;;21.70;13.27;;;26.90;64.70;;;;;;6179955;28;83572;-67
2021/07/27 10:02:37;;;;;;;16.92;12.70;;;26.80;65.30;;;;;;6176142;28;83191;-67
2021/07/27 10:05:38;;;;;;;18.30;13.30;;;26.80;65.20;;;;;;6172974;28;82828;-68
2021/07/27 10:08:38;;;;;;;20.00;12.75;;;26.80;65.00;;;;;;6180894;28;82894;-67
2021/07/27 10:11:39;;;;;;;17.23;12.30;;;26.80;65.00;;;;;;6170742;28;83167;-67
2021/07/27 10:14:40;;;;;;;25.17;13.55;;;26.80;64.70;;;;;;6177911;28;83089;-67
2021/07/27 10:17:40;;;;;;;16.02;12.48;;;26.80;65.20;;;;;;6177655;28;83239;-68
2021/07/27 10:20:41;;;;;;;19.63;13.00;;;26.80;65.00;;;;;;6174387;28;85292;-67
2021/07/27 10:23:41;;;;;;;19.33;12.02;;;26.90;64.80;;;;;;6174083;28;84602;-67
2021/07/27 10:26:42;;;;;;;17.83;12.90;;;26.90;64.70;;;;;;6177875;28;83075;-67
2021/07/27 10:29:43;;;;;;;19.33;12.35;;;26.90;65.00;;;;;;6173502;28;83438;-67
2021/07/27 10:32:43;;;;;;;19.98;12.77;;;26.90;64.50;;;;;;6173590;28;83975;-68
2021/07/27 10:35:44;;;;;;;23.55;13.23;;;26.90;64.50;;;;;;6173841;28;84217;-67
2021/07/27 10:38:46;;;;;;;16.52;12.18;;;27.00;64.30;;;;;;6176109;28;83184;-67
2021/07/27 10:41:46;;;;;;;20.08;12.20;;;27.00;64.50;;;;;;6177290;28;84390;-68
2021/07/27 10:44:48;;;;;;;20.65;13.50;;;27.00;64.10;;;;;;6174200;28;82965;-68
2021/07/27 10:47:49;;;;;;;21.73;13.15;;;27.00;63.90;;;;;;6179494;28;83522;-66
2021/07/27 10:50:49;;;;;;;19.67;13.23;;;27.00;64.10;;;;;;6180166;28;83801;-67
2021/07/27 10:53:50;;;;;;;17.10;12.70;;;27.00;64.10;;;;;;6177912;28;83460;-67
2021/07/27 10:56:50;;;;;;;19.45;13.95;;;27.00;64.20;;;;;;6187837;28;85640;-67
2021/07/27 10:59:51;;;;;;;18.10;13.57;;;27.00;64.90;;;;;;6178711;28;83002;-67
2021/07/27 11:02:51;;;;;;;19.92;13.38;;;27.00;64.90;;;;;;6177162;28;83491;-67
2021/07/27 11:05:52;;;;;;;18.42;13.45;;;27.10;64.60;;;;;;6168106;28;83534;-66
2021/07/27 11:08:52;;;;;;;21.77;13.95;;;27.10;64.20;;;;;;6177211;28;83275;-66
2021/07/27 11:11:53;;;;;;;21.17;13.60;;;27.10;64.10;;;;;;6172262;28;83175;-63
2021/07/27 11:14:53;;;;;;;16.48;12.90;;;27.10;65.10;;;;;;6179699;28;83156;-66
2021/07/27 11:17:54;;;;;;;29.02;14.60;;;27.20;64.70;;;;;;6178009;28;83794;-66
2021/07/27 11:20:55;;;;;;;20.05;14.90;;;27.10;64.10;;;;;;6180053;28;82998;-67
2021/07/27 11:23:55;;;;;;;22.92;14.73;;;27.10;63.90;;;;;;6186498;28;86277;-66
2021/07/27 11:26:56;;;;;;;23.38;15.75;;;27.10;64.00;;;;;;6177842;28;82841;-66
2021/07/27 11:29:57;;;;;;;21.42;15.05;;;27.10;64.30;;;;;;6166062;28;83777;-66
2021/07/27 11:32:58;;;;;;;19.88;14.10;;;27.10;64.30;;;;;;6174907;28;85340;-66
2021/07/27 11:36:00;;;;;;;23.92;15.07;;;27.10;64.90;;;;;;6179167;28;83729;-65
2021/07/27 11:39:01;;;;;;;17.27;14.32;;;27.10;64.20;;;;;;6174738;28;83128;-66
2021/07/27 11:42:01;;;;;;;22.60;14.88;;;27.10;64.40;;;;;;6172368;28;83019;-65
2021/07/27 11:45:02;;;;;;;18.77;14.60;;;27.20;65.80;;;;;;6164678;28;84488;-65
2021/07/27 11:48:03;;;;;;;30.30;15.30;;;27.20;64.90;;;;;;6178388;28;83105;-65
2021/07/27 11:51:03;;;;;;;18.85;14.77;;;27.20;64.60;;;;;;6178550;28;82753;-65
2021/07/27 11:54:04;;;;;;;19.98;14.65;;;27.20;65.10;;;;;;6172314;28;84219;-66
2021/07/27 11:57:06;;;;;;;18.45;14.52;;;27.20;65.00;;;;;;6179077;28;85645;-66
2021/07/27 12:00:07;;;;;;;24.27;17.95;;;27.20;64.90;;;;;;6178245;28;83469;-64
2021/07/27 12:03:07;;;;;;;19.30;15.23;;;27.30;64.90;;;;;;6176797;28;85054;-65
2021/07/27 12:06:08;;;;;;;20.50;15.20;;;27.30;64.70;;;;;;6172627;28;84126;-67
2021/07/27 12:09:08;;;;;;;19.70;14.07;;;27.30;64.50;;;;;;6169324;28;83210;-67
2021/07/27 12:12:09;;;;;;;20.65;14.55;;;27.30;64.30;;;;;;6177103;28;84015;-66
2021/07/27 12:15:09;;;;;;;19.55;14.95;;;27.30;64.10;;;;;;6178770;28;83368;-65
2021/07/27 12:18:10;;;;;;;18.83;14.63;;;27.30;64.20;;;;;;6177428;28;84188;-66
2021/07/27 12:21:10;;;;;;;21.98;15.23;;;27.30;64.30;;;;;;6170062;28;83300;-66
2021/07/27 12:24:11;;;;;;;21.60;15.50;;;27.30;64.70;;;;;;6172383;28;84335;-65
2021/07/27 12:27:11;;;;;;;19.63;14.55;;;27.30;64.20;;;;;;6178245;28;83391;-65
2021/07/27 12:30:12;;;;;;;16.77;14.10;;;27.30;64.00;;;;;;6178130;28;84834;-67
2021/07/27 12:33:13;;;;;;;18.52;14.15;;;27.30;64.60;;;;;;6175438;28;83189;-66
2021/07/27 12:36:14;;;;;;;17.67;13.93;;;27.30;63.60;;;;;;6174820;28;83472;-66
2021/07/27 12:39:15;;;;;;;17.40;14.65;;;27.30;62.70;;;;;;6173343;28;83423;-66
2021/07/27 12:42:15;;;;;;;20.45;14.40;;;27.30;62.00;;;;;;6175666;28;83604;-66
2021/07/27 12:45:16;;;;;;;16.70;13.88;;;27.30;62.50;;;;;;6177518;28;83076;-67
2021/07/27 12:48:16;;;;;;;16.42;13.38;;;27.30;62.10;;;;;;6174165;28;83401;-66
2021/07/27 12:51:17;;;;;;;18.45;14.32;;;27.30;62.50;;;;;;6172033;28;83057;-66
2021/07/27 12:54:18;;;;;;;14.68;11.88;;;27.30;61.80;;;;;;6170927;28;83699;-67
2021/07/27 12:57:18;;;;;;;23.25;12.18;;;27.30;61.70;;;;;;6170186;28;82899;-66
2021/07/27 13:00:19;;;;;;;13.88;11.00;;;27.30;61.60;;;;;;6177243;28;85176;-65
2021/07/27 13:03:19;;;;;;;15.70;11.50;;;27.30;61.50;;;;;;6160268;28;83574;-66
2021/07/27 13:06:20;;;;;;;14.93;11.30;;;27.30;61.30;;;;;;6169754;28;82883;-66
2021/07/27 13:09:20;;;;;;;14.15;10.73;;;27.40;61.70;;;;;;6163751;28;83644;-66
2021/07/27 13:12:21;;;;;;;13.95;10.75;;;27.40;61.80;;;;;;6165736;28;82989;-66
2021/07/27 13:15:21;;;;;;;16.00;11.70;;;27.40;61.80;;;;;;6166680;28;83429;-65
2021/07/27 13:18:22;;;;;;;15.15;11.77;;;27.40;61.80;;;;;;6161354;28;82882;-63
2021/07/27 13:21:24;;;;;;;13.43;11.43;;;27.50;61.90;;;;;;6164849;28;83555;-65
2021/07/27 13:24:24;;;;;;;14.98;11.77;;;27.50;62.00;;;;;;6174321;28;85238;-67
2021/07/27 13:27:25;;;;;;;16.10;11.35;;;27.50;62.00;;;;;;6163385;28;84186;-66
2021/07/27 13:30:25;;;;;;;14.57;11.15;;;27.50;62.50;;;;;;6164643;28;84041;-66
2021/07/27 13:33:26;;;;;;;46.10;21.45;;;27.50;62.90;;;;;;6159978;28;83844;-66
2021/07/27 13:36:26;;;;;;;226.35;82.25;;;27.50;62.80;;;;;;6172252;28;83319;-66
2021/07/27 13:39:27;;;;;;;318.13;116.50;;;27.50;62.30;;;;;;6170078;28;83186;-66
2021/07/27 13:42:27;;;;;;;457.65;161.25;;;27.60;62.30;;;;;;6161713;28;85942;-66
2021/07/27 13:45:28;;;;;;;386.85;133.50;;;27.60;63.80;;;;;;6167428;28;86012;-65
2021/07/27 13:48:28;;;;;;;322.15;114.70;;;27.60;63.70;;;;;;6160141;28;85343;-66
2021/07/27 13:51:29;;;;;;;193.82;74.82;;;27.60;64.10;;;;;;6160664;28;85759;-65
2021/07/27 13:54:29;;;;;;;167.43;60.10;;;27.60;63.30;;;;;;6170932;28;85491;-66
2021/07/27 13:57:30;;;;;;;107.88;41.85;;;27.60;63.00;;;;;;6158711;28;84613;-66
2021/07/27 14:00:30;;;;;;;69.82;30.65;;;27.60;62.20;;;;;;6175138;28;83620;-66
2021/07/27 14:03:31;;;;;;;56.13;25.38;;;27.60;61.90;;;;;;6162393;28;83389;-65
2021/07/27 14:06:31;;;;;;;55.83;25.00;;;27.60;61.70;;;;;;6172620;28;84453;-65
2021/07/27 14:09:33;;;;;;;42.72;20.15;;;27.60;62.00;;;;;;6163620;28;83552;-66
2021/07/27 14:12:33;;;;;;;44.97;20.30;;;27.60;61.70;;;;;;6167808;28;83026;-64
2021/07/27 14:15:34;;;;;;;33.85;18.27;;;27.60;62.00;;;;;;6167383;28;85626;-65
2021/07/27 14:18:34;;;;;;;31.10;14.88;;;27.60;62.30;;;;;;6179457;28;83248;-65
2021/07/27 14:21:35;;;;;;;20.05;12.27;;;27.60;61.70;;;;;;6167673;28;85765;-68
2021/07/27 14:24:35;;;;;;;20.65;14.57;;;27.60;60.40;;;;;;6174552;28;83459;-66
2021/07/27 14:27:36;;;;;;;19.52;12.02;;;27.60;59.90;;;;;;6177574;28;82890;-65
2021/07/27 14:30:36;;;;;;;20.45;10.18;;;27.60;59.90;;;;;;6174530;28;83346;-66
2021/07/27 14:33:37;;;;;;;19.08;11.10;;;27.60;59.30;;;;;;6182638;28;83179;-65
2021/07/27 14:36:37;;;;;;;16.98;10.15;;;27.60;59.40;;;;;;6176007;28;82957;-66
2021/07/27 14:39:38;;;;;;;13.32;9.10;;;27.60;59.30;;;;;;6180014;28;82892;-67
2021/07/27 14:42:38;;;;;;;11.40;8.35;;;27.70;59.40;;;;;;6184637;28;82970;-67
2021/07/27 14:45:39;;;;;;;16.13;9.45;;;27.60;59.30;;;;;;6179801;28;83001;-65
2021/07/27 14:48:40;;;;;;;12.27;8.57;;;27.60;59.50;;;;;;6179575;28;80835;-64
2021/07/27 14:51:40;;;;;;;13.15;8.77;;;27.60;59.60;;;;;;6181915;28;80401;-66
2021/07/27 14:54:41;;;;;;;12.65;8.68;;;27.60;59.80;;;;;;6183567;28;82943;-66
2021/07/27 14:57:42;;;;;;;11.27;8.50;;;27.60;59.70;;;;;;6183169;28;83169;-66
2021/07/27 15:00:42;;;;;;;14.35;9.05;;;27.60;59.90;;;;;;6188734;28;83243;-66
2021/07/27 15:03:43;;;;;;;11.38;8.93;;;27.60;59.80;;;;;;6181611;28;80338;-66
2021/07/27 15:06:43;;;;;;;30.40;9.20;;;27.60;59.40;;;;;;6181769;28;80975;-66
2021/07/27 15:09:44;;;;;;;9.93;8.77;;;27.50;59.60;;;;;;6182560;28;80600;-66
2021/07/27 15:12:44;;;;;;;10.43;8.27;;;27.50;59.40;;;;;;6182273;28;82658;-67
2021/07/27 15:15:45;;;;;;;10.02;8.20;;;27.50;58.70;;;;;;6176097;28;80611;-66
2021/07/27 15:18:45;;;;;;;10.30;8.35;;;27.50;59.10;;;;;;6167474;28;80522;-66
2021/07/27 15:21:46;;;;;;;9.13;7.80;;;27.50;60.10;;;;;;6182023;28;80350;-67
2021/07/27 15:24:47;;;;;;;12.68;9.35;;;27.60;59.60;;;;;;6181213;28;80698;-67
2021/07/27 15:27:48;;;;;;;12.40;9.15;;;27.60;59.40;;;;;;6183430;28;80994;-66
2021/07/27 15:30:48;;;;;;;10.52;8.18;;;27.60;59.80;;;;;;6182061;28;83314;-67
2021/07/27 15:33:48;;;;;;;11.13;8.65;;;27.60;59.50;;;;;;6182058;28;80756;-65
2021/07/27 15:36:49;;;;;;;12.50;8.27;;;27.60;59.00;;;;;;6166776;28;80930;-66
2021/07/27 15:39:49;;;;;;;11.35;8.48;;;27.60;59.00;;;;;;6183030;28;80579;-66
2021/07/27 15:42:50;;;;;;;14.48;8.18;;;27.60;59.30;;;;;;6181859;28;80665;-66
2021/07/27 15:45:51;;;;;;;12.38;8.57;;;27.60;59.90;;;;;;6176652;28;80394;-67